Mount Nebo, West Virginia
Current Conditions -  °F | °C
As of 4:59 PM on Sunday 23 Nov 2014 (Local Time) from KBKW Reporting Station
Overcast Overcast  
Wind Chill: 50°   Ceiling: 1200
Heat Index: 50°   Visibility: 10mi
Dew Point: 44°   Wind: 18mph
Humidity: 80%   Direction: 130°SE
Pressure: 29.85"   Gusts: 25mph
Location:  38.2°N, 80.86°W
Report Text: KBKW 232159Z AUTO 13016G22KT 10SM BKN012 OVC080 10/07 A2985 RMK AO2 T01000067
Loading
Personal Weather Stations






























Interactive Weather Map New forecast layout! Learn more

10-Day Weather Forecast

Advertisements
Track Severe Weather on mobile